createdAt,value
2022-10-03T00:05:12.081Z,98.40
2022-10-03T00:11:05.651Z,98.50
2022-10-03T00:17:06.325Z,98.40
2022-10-03T00:22:47.595Z,98.30
2022-10-03T00:28:39.474Z,98.40
2022-10-03T00:34:37.442Z,98.30
2022-10-03T00:40:39.809Z,98.40
2022-10-03T00:46:44.088Z,98.40
2022-10-03T00:52:17.479Z,98.30
2022-10-03T00:58:30.151Z,98.40
2022-10-03T01:04:35.495Z,98.30
2022-10-03T01:10:52.431Z,98.40
2022-10-03T01:16:54.644Z,98.40
2022-10-03T01:23:13.074Z,98.30
2022-10-03T01:29:06.331Z,98.40
2022-10-03T01:34:54.248Z,98.40
2022-10-03T01:40:43.381Z,98.50
2022-10-03T01:46:29.103Z,98.60
2022-10-03T01:53:04.742Z,98.60
2022-10-03T01:59:05.527Z,98.60
2022-10-03T02:05:05.367Z,98.70
2022-10-03T02:10:44.031Z,98.70
2022-10-03T02:16:43.522Z,98.80
2022-10-03T02:22:42.692Z,98.80
2022-10-03T02:28:30.451Z,99.00
2022-10-03T02:34:26.245Z,99.00
2022-10-03T02:40:38.872Z,98.90
2022-10-03T02:46:09.473Z,98.90
2022-10-03T02:52:27.125Z,98.90
2022-10-03T02:58:32.044Z,98.80
2022-10-03T03:04:44.687Z,98.80
2022-10-03T03:10:37.928Z,99.20
2022-10-03T03:16:33.284Z,99.50
2022-10-03T03:22:35.359Z,99.40
2022-10-03T03:28:40.919Z,99.30
2022-10-03T03:34:23.457Z,99.30
2022-10-03T03:40:29.683Z,99.20
2022-10-03T03:46:51.842Z,99.10
2022-10-03T03:52:53.790Z,99.10
2022-10-03T03:59:02.992Z,99.20
2022-10-03T04:04:52.486Z,99.20
2022-10-03T04:10:53.863Z,99.30
2022-10-03T04:17:31.324Z,99.20
2022-10-03T04:23:45.901Z,99.10
2022-10-03T04:29:25.601Z,99.10
2022-10-03T04:35:14.642Z,99.20
2022-10-03T04:40:51.682Z,99.20
2022-10-03T04:46:46.862Z,99.30
2022-10-03T04:52:52.243Z,99.30
2022-10-03T04:58:56.871Z,99.20
2022-10-03T05:10:35.923Z,99.20
2022-10-03T05:16:18.222Z,99.20
2022-10-03T05:22:26.017Z,99.20
2022-10-03T05:28:53.473Z,99.10
2022-10-03T05:34:27.915Z,99.10
2022-10-03T05:40:12.414Z,99.20
2022-10-03T05:45:58.661Z,99.20
2022-10-03T05:52:04.671Z,99.10
2022-10-03T05:58:17.408Z,99.20
2022-10-03T06:04:10.098Z,99.00
2022-10-03T06:09:46.540Z,98.90
2022-10-03T06:15:46.635Z,98.90
2022-10-03T06:21:26.175Z,98.90
2022-10-03T06:27:10.687Z,98.90
2022-10-03T06:33:35.071Z,98.90
2022-10-03T06:39:49.841Z,98.90
2022-10-03T06:45:54.644Z,99.10
2022-10-03T06:52:10.049Z,99.30
2022-10-03T06:58:04.971Z,99.00
2022-10-03T07:04:06.523Z,99.00
2022-10-03T07:09:55.225Z,99.10
2022-10-03T07:16:26.629Z,99.20
2022-10-03T07:22:23.585Z,99.40
2022-10-03T07:28:42.726Z,99.10
2022-10-03T07:34:43.347Z,99.10
2022-10-03T07:40:41.675Z,99.20
2022-10-03T07:46:35.370Z,98.70
2022-10-03T07:52:52.438Z,98.70
2022-10-03T07:58:45.416Z,98.70
2022-10-03T08:05:07.200Z,99.00
2022-10-03T08:11:06.976Z,98.90
2022-10-03T08:17:06.414Z,98.80
2022-10-03T08:23:03.854Z,98.90
2022-10-03T08:28:42.723Z,99.00
2022-10-03T08:35:09.020Z,99.00
2022-10-03T08:41:15.165Z,98.70
2022-10-03T08:47:08.755Z,98.60
2022-10-03T08:53:33.167Z,98.70
2022-10-03T08:59:26.486Z,98.60
2022-10-03T09:05:28.232Z,98.70
2022-10-03T09:11:34.305Z,98.80
2022-10-03T09:17:22.919Z,98.60
2022-10-03T09:23:01.352Z,98.10
2022-10-03T09:29:08.548Z,97.80
2022-10-03T09:35:01.698Z,97.80
2022-10-03T09:41:13.774Z,97.50
2022-10-03T09:47:23.155Z,97.60
2022-10-03T09:53:09.426Z,96.90
2022-10-03T09:59:22.146Z,97.10
2022-10-03T10:05:20.060Z,97.30
2022-10-03T10:11:07.472Z,96.70
2022-10-03T10:17:21.893Z,96.50
2022-10-03T10:23:27.747Z,96.30
2022-10-03T10:29:17.926Z,95.70
2022-10-03T10:35:52.097Z,95.40
2022-10-03T10:42:00.870Z,95.40
2022-10-03T10:47:59.423Z,94.90
2022-10-03T10:54:12.758Z,93.50
2022-10-03T11:00:26.492Z,92.90
2022-10-03T11:06:41.077Z,93.40
2022-10-03T11:13:02.966Z,93.50
2022-10-03T11:19:06.385Z,92.90
2022-10-03T11:25:31.749Z,93.20
2022-10-03T11:31:26.061Z,92.80
2022-10-03T11:37:29.230Z,92.60
2022-10-03T11:43:33.266Z,92.40
2022-10-03T11:50:11.293Z,91.40
2022-10-03T11:56:46.656Z,91.10
2022-10-03T12:02:50.175Z,90.60
2022-10-03T12:08:56.467Z,90.50
2022-10-03T12:14:32.748Z,90.00
2022-10-03T12:20:23.474Z,89.10
2022-10-03T12:25:59.243Z,89.90
2022-10-03T12:32:02.180Z,88.00
2022-10-03T12:38:04.853Z,87.10
2022-10-03T12:43:48.102Z,87.00
2022-10-03T12:50:02.099Z,86.70
2022-10-03T12:55:38.965Z,86.70
2022-10-03T13:02:00.957Z,85.70
2022-10-03T13:08:43.058Z,85.10
2022-10-03T13:14:41.055Z,85.10
2022-10-03T13:20:46.190Z,85.00
2022-10-03T13:33:52.425Z,85.00
2022-10-03T13:40:00.835Z,81.00
2022-10-03T13:45:34.843Z,79.80
2022-10-03T13:51:53.520Z,75.10
2022-10-03T13:57:36.789Z,67.90
2022-10-03T14:03:45.924Z,68.60
2022-10-03T14:10:10.181Z,71.80
2022-10-03T14:16:02.193Z,66.00
2022-10-03T14:21:52.584Z,66.90
2022-10-03T14:27:56.622Z,60.00
2022-10-03T14:33:51.497Z,60.60
2022-10-03T14:40:25.450Z,63.10
2022-10-03T14:45:58.491Z,64.30
2022-10-03T14:51:44.843Z,64.30
2022-10-03T14:58:05.568Z,65.10
2022-10-03T15:03:38.297Z,66.00
2022-10-03T15:09:19.722Z,68.40
2022-10-03T15:15:24.860Z,69.70
2022-10-03T15:20:55.224Z,69.70
2022-10-03T15:26:26.138Z,70.40
2022-10-03T15:31:55.301Z,70.60
2022-10-03T15:37:27.209Z,71.00
2022-10-03T15:43:30.963Z,71.20
2022-10-03T15:49:20.821Z,71.90
2022-10-03T15:55:06.693Z,72.10
2022-10-03T16:00:39.938Z,72.80
2022-10-03T16:06:35.909Z,72.80
2022-10-03T16:12:22.561Z,73.20
2022-10-03T16:17:57.236Z,73.40
2022-10-03T16:23:30.582Z,73.90
2022-10-03T16:29:13.047Z,73.90
2022-10-03T16:34:44.764Z,74.30
2022-10-03T16:40:22.667Z,74.80
2022-10-03T16:45:51.442Z,74.70
2022-10-03T16:51:25.113Z,74.90
2022-10-03T16:57:00.281Z,75.30
2022-10-03T17:02:30.959Z,75.30
2022-10-03T17:08:23.818Z,75.50
2022-10-03T17:14:04.513Z,75.60
2022-10-03T17:19:50.364Z,76.20
2022-10-03T17:25:20.820Z,76.50
2022-10-03T17:30:57.085Z,76.10
2022-10-03T17:37:07.144Z,76.50
2022-10-03T17:43:28.239Z,76.70
2022-10-03T17:50:24.736Z,76.60
2022-10-03T17:56:06.941Z,76.80
2022-10-03T18:01:42.021Z,77.00
2022-10-03T18:07:25.822Z,77.30
2022-10-03T18:12:58.867Z,77.60
2022-10-03T18:18:52.611Z,77.60
2022-10-03T18:24:49.882Z,77.90
2022-10-03T18:30:47.477Z,78.10
2022-10-03T19:37:45.130Z,80.90
2022-10-03T19:43:44.831Z,81.10
2022-10-03T19:49:44.028Z,81.30
2022-10-03T19:55:31.420Z,81.20
2022-10-03T20:01:00.603Z,81.50
2022-10-03T20:06:37.771Z,81.90
2022-10-03T20:12:11.573Z,82.10
2022-10-03T20:17:41.082Z,82.20
2022-10-03T20:23:16.323Z,82.10
2022-10-03T20:28:59.895Z,82.40
2022-10-03T20:34:29.092Z,82.40
2022-10-03T20:40:20.239Z,82.60
2022-10-03T20:46:19.993Z,82.50
2022-10-03T20:51:54.255Z,82.70
2022-10-03T21:03:11.429Z,83.00
2022-10-03T21:08:43.089Z,83.10
2022-10-03T21:14:22.124Z,83.10
2022-10-03T21:20:12.375Z,83.50
2022-10-03T21:25:42.710Z,83.20
2022-10-03T21:31:22.113Z,83.40
2022-10-03T21:37:06.096Z,83.60
2022-10-03T21:43:07.294Z,83.70
2022-10-03T21:49:19.884Z,83.80
2022-10-03T21:55:02.994Z,83.60
2022-10-03T22:01:23.446Z,84.50
2022-10-03T22:07:20.055Z,84.00
2022-10-03T22:13:06.074Z,83.90
2022-10-03T22:19:19.669Z,84.20
2022-10-03T22:25:26.967Z,84.30
2022-10-03T22:31:34.473Z,84.20
2022-10-03T22:37:03.930Z,84.60
2022-10-03T22:42:43.052Z,84.60
2022-10-03T22:48:26.602Z,84.20
2022-10-03T22:54:07.891Z,84.90
2022-10-03T23:06:11.052Z,84.90
2022-10-03T23:11:40.946Z,85.30
2022-10-03T23:17:45.522Z,85.50
2022-10-03T23:23:25.245Z,85.50
2022-10-03T23:29:17.027Z,85.60
2022-10-03T23:34:46.372Z,85.50
2022-10-03T23:40:28.873Z,85.70
2022-10-03T23:46:18.590Z,85.70
2022-10-03T23:51:48.360Z,85.80
2022-10-03T23:57:18.523Z,85.70
